San Cristobal, San Cristobal Airport (SEST)

NameSan Cristobal Airport
CitySan Cristobal
CountryEcuador
ICAOSEST
IATASCY
Altitude19 m
CoordinatesGoogle Map
Live Air TrafficLiveATC.net
METARSEST 251700Z 12011KT 9999 FEW020 29/24 Q1011 A2987
2020-04-25 17:00:00 Wind: East-Southeast (120°) 5.66 m/s - Visibility: > 10000 m - Temperature: 29 °C - Dew point: 24 °C - Humidity: 74.5% - Pressure: 1011.51 hPa

Sorry, no flights used the airport in this database.